createdAt,value
2023-06-30T00:01:38.041Z,99747.64
2023-06-30T00:04:05.705Z,99750.00
2023-06-30T00:06:34.244Z,99750.92
2023-06-30T00:09:01.714Z,99750.94
2023-06-30T00:11:29.189Z,99748.52
2023-06-30T00:13:56.717Z,99751.05
2023-06-30T00:16:24.304Z,99751.67
2023-06-30T00:18:51.820Z,99754.30
2023-06-30T00:21:20.004Z,99751.91
2023-06-30T00:23:47.656Z,99750.40
2023-06-30T00:26:15.241Z,99749.20
2023-06-30T00:28:42.733Z,99747.19
2023-06-30T00:31:10.286Z,99749.42
2023-06-30T00:33:37.975Z,99746.04
2023-06-30T00:36:05.603Z,99746.55
2023-06-30T00:38:33.280Z,99745.09
2023-06-30T00:41:00.952Z,99746.42
2023-06-30T00:43:28.453Z,99749.36
2023-06-30T00:45:57.641Z,99750.50
2023-06-30T00:48:25.361Z,99750.11
2023-06-30T00:50:52.884Z,99743.55
2023-06-30T00:53:20.631Z,99744.77
2023-06-30T00:55:48.452Z,99744.73
2023-06-30T00:58:16.204Z,99735.32
2023-06-30T01:00:44.013Z,99732.77
2023-06-30T01:03:34.468Z,99729.21
2023-06-30T01:06:16.529Z,99725.49
2023-06-30T01:09:01.659Z,99717.89
2023-06-30T01:11:33.754Z,99713.13
2023-06-30T01:14:04.214Z,99712.92
2023-06-30T01:16:34.482Z,99708.92
2023-06-30T01:19:07.238Z,99706.27
2023-06-30T01:21:36.230Z,99701.09
2023-06-30T01:24:08.083Z,99696.15
2023-06-30T01:26:35.661Z,99701.27
2023-06-30T01:29:04.527Z,99695.77
2023-06-30T01:31:33.723Z,99693.55
2023-06-30T01:34:02.345Z,99689.98
2023-06-30T01:36:30.153Z,99688.27
2023-06-30T01:39:00.398Z,99692.34
2023-06-30T01:41:28.056Z,99691.38
2023-06-30T01:43:56.296Z,99688.80
2023-06-30T01:46:23.922Z,99688.25
2023-06-30T01:48:51.558Z,99689.67
2023-06-30T01:51:19.489Z,99685.73
2023-06-30T01:53:47.080Z,99686.60
2023-06-30T01:56:15.168Z,99684.23
2023-06-30T01:58:42.803Z,99686.34
2023-06-30T02:01:10.334Z,99675.48
2023-06-30T02:03:38.108Z,99677.92
2023-06-30T02:06:05.867Z,99673.91
2023-06-30T02:08:33.406Z,99676.27
2023-06-30T02:11:00.874Z,99673.70
2023-06-30T02:13:28.464Z,99674.48
2023-06-30T02:15:55.988Z,99671.48
2023-06-30T02:18:26.000Z,99672.52
2023-06-30T02:20:54.227Z,99673.55
2023-06-30T02:23:22.020Z,99670.86
2023-06-30T02:25:49.576Z,99672.83
2023-06-30T02:28:17.153Z,99668.67
2023-06-30T02:30:45.705Z,99663.32
2023-06-30T02:33:13.280Z,99667.27
2023-06-30T02:35:40.838Z,99663.06
2023-06-30T02:38:08.768Z,99661.06
2023-06-30T02:40:37.403Z,99659.67
2023-06-30T02:43:04.953Z,99654.36
2023-06-30T02:45:32.578Z,99654.08
2023-06-30T02:48:00.325Z,99648.79
2023-06-30T02:50:30.378Z,99644.52
2023-06-30T02:52:59.786Z,99641.97
2023-06-30T02:55:28.806Z,99638.52
2023-06-30T02:57:57.893Z,99636.89
2023-06-30T03:00:26.078Z,99634.68
2023-06-30T03:02:55.031Z,99632.60
2023-06-30T03:05:22.862Z,99635.13
2023-06-30T03:07:50.474Z,99632.36
2023-06-30T03:10:19.460Z,99631.88
2023-06-30T03:12:47.036Z,99633.87
2023-06-30T03:15:14.793Z,99631.86
2023-06-30T03:17:42.706Z,99630.77
2023-06-30T03:20:11.705Z,99628.08
2023-06-30T03:22:40.755Z,99624.61
2023-06-30T03:25:09.685Z,99621.47
2023-06-30T03:27:37.641Z,99621.64
2023-06-30T03:30:06.783Z,99625.33
2023-06-30T03:32:36.930Z,99620.93
2023-06-30T03:35:05.058Z,99615.94
2023-06-30T03:37:33.988Z,99615.89
2023-06-30T03:40:07.835Z,99617.94
2023-06-30T03:42:35.646Z,99612.91
2023-06-30T03:45:03.392Z,99611.09
2023-06-30T03:47:33.919Z,99610.40
2023-06-30T03:50:01.666Z,99607.77
2023-06-30T03:52:29.375Z,99604.29
2023-06-30T03:54:57.684Z,99601.05
2023-06-30T03:57:25.182Z,99603.58
2023-06-30T03:59:52.708Z,99599.11
2023-06-30T04:02:20.312Z,99600.02
2023-06-30T04:04:48.205Z,99600.48
2023-06-30T04:07:15.893Z,99596.08
2023-06-30T04:09:43.568Z,99597.29
2023-06-30T04:12:11.273Z,99595.11
2023-06-30T04:14:38.829Z,99595.00
2023-06-30T04:17:06.656Z,99593.80
2023-06-30T04:19:34.169Z,99592.59
2023-06-30T04:22:04.902Z,99594.02
2023-06-30T04:24:33.234Z,99592.34
2023-06-30T04:27:00.738Z,99591.88
2023-06-30T04:29:28.763Z,99590.58
2023-06-30T04:31:56.336Z,99592.69
2023-06-30T04:34:23.992Z,99590.32
2023-06-30T04:36:51.507Z,99592.41
2023-06-30T04:39:20.542Z,99586.58
2023-06-30T04:41:48.092Z,99585.96
2023-06-30T04:44:15.898Z,99583.21
2023-06-30T04:46:43.424Z,99580.08
2023-06-30T04:49:11.089Z,99577.58
2023-06-30T04:51:38.672Z,99574.19
2023-06-30T04:54:06.212Z,99574.06
2023-06-30T04:56:33.813Z,99579.12
2023-06-30T04:59:01.366Z,99577.11
2023-06-30T05:01:29.858Z,99574.06
2023-06-30T05:03:57.587Z,99576.51
2023-06-30T05:06:25.605Z,99573.59
2023-06-30T05:08:53.123Z,99577.03
2023-06-30T05:11:20.615Z,99574.83
2023-06-30T05:13:48.345Z,99573.65
2023-06-30T05:16:15.977Z,99570.83
2023-06-30T05:18:43.630Z,99574.71
2023-06-30T05:21:11.187Z,99572.98
2023-06-30T05:23:38.736Z,99573.48
2023-06-30T05:26:07.187Z,99575.93
2023-06-30T05:28:35.938Z,99572.62
2023-06-30T05:31:04.609Z,99570.00
2023-06-30T05:33:32.304Z,99575.27
2023-06-30T05:35:59.902Z,99576.77
2023-06-30T05:38:27.422Z,99574.30
2023-06-30T05:40:54.960Z,99575.02
2023-06-30T05:43:22.486Z,99579.73
2023-06-30T05:45:50.774Z,99582.52
2023-06-30T05:48:18.319Z,99580.59
2023-06-30T05:50:46.583Z,99580.27
2023-06-30T05:53:14.211Z,99583.10
2023-06-30T05:55:41.911Z,99587.73
2023-06-30T05:58:10.316Z,99584.97
2023-06-30T06:00:37.843Z,99586.55
2023-06-30T06:03:05.567Z,99585.95
2023-06-30T06:05:33.558Z,99584.04
2023-06-30T06:08:01.237Z,99588.11
2023-06-30T06:10:29.825Z,99583.31
2023-06-30T06:12:57.515Z,99582.48
2023-06-30T06:15:26.498Z,99578.95
2023-06-30T06:17:55.461Z,99576.72
2023-06-30T06:20:23.171Z,99581.73
2023-06-30T06:22:50.721Z,99582.77
2023-06-30T06:25:18.224Z,99581.28
2023-06-30T06:27:45.873Z,99582.57
2023-06-30T06:30:14.061Z,99579.13
2023-06-30T06:32:41.716Z,99576.66
2023-06-30T06:35:09.428Z,99581.36
2023-06-30T06:37:36.973Z,99584.43
2023-06-30T06:40:05.181Z,99575.59
2023-06-30T06:42:32.753Z,99572.86
2023-06-30T06:45:00.264Z,99567.77
2023-06-30T06:47:59.864Z,99569.34
2023-06-30T06:50:27.577Z,99567.89
2023-06-30T06:52:55.311Z,99566.14
2023-06-30T06:55:23.054Z,99569.33
2023-06-30T06:57:50.663Z,99572.52
2023-06-30T07:00:18.479Z,99567.05
2023-06-30T07:02:46.269Z,99566.51
2023-06-30T07:05:13.991Z,99564.13
2023-06-30T07:07:41.896Z,99559.76
2023-06-30T07:10:10.055Z,99556.26
2023-06-30T07:12:37.562Z,99558.27
2023-06-30T07:15:06.206Z,99557.92
2023-06-30T07:17:33.956Z,99556.02
2023-06-30T07:20:01.640Z,99555.20
2023-06-30T07:22:29.131Z,99559.24
2023-06-30T07:24:56.635Z,99550.15
2023-06-30T07:27:24.137Z,99548.87
2023-06-30T07:29:51.818Z,99545.92
2023-06-30T07:32:19.436Z,99532.79
2023-06-30T07:34:46.971Z,99537.52
2023-06-30T07:37:14.480Z,99525.51
2023-06-30T07:39:42.060Z,99533.09
2023-06-30T07:42:09.609Z,99532.55
2023-06-30T07:44:37.262Z,99525.11
2023-06-30T07:47:05.321Z,99517.50
2023-06-30T07:49:32.992Z,99510.09
2023-06-30T07:52:00.626Z,99518.56
2023-06-30T07:54:28.325Z,99518.41
2023-06-30T07:56:56.096Z,99514.02
2023-06-30T07:59:23.755Z,99509.50
2023-06-30T08:01:52.129Z,99511.17
2023-06-30T08:04:20.115Z,99497.77
2023-06-30T08:06:48.558Z,99498.19
2023-06-30T08:09:16.042Z,99487.61
2023-06-30T08:11:43.551Z,99495.96
2023-06-30T08:14:11.054Z,99483.21
2023-06-30T08:16:38.850Z,99473.46
2023-06-30T08:19:07.034Z,99471.75
2023-06-30T08:21:49.364Z,99448.72
2023-06-30T08:24:16.896Z,99454.23
2023-06-30T08:26:44.407Z,99454.70
2023-06-30T08:29:11.909Z,99447.75
2023-06-30T08:31:39.480Z,99423.00
2023-06-30T08:34:09.413Z,99435.16
2023-06-30T08:36:37.288Z,99440.13
2023-06-30T08:39:04.817Z,99442.80
2023-06-30T08:41:34.290Z,99445.96
2023-06-30T08:44:02.018Z,99438.23
2023-06-30T08:46:30.210Z,99437.16
2023-06-30T08:48:58.171Z,99438.17
2023-06-30T08:51:25.849Z,99436.35
2023-06-30T08:53:54.636Z,99437.53
2023-06-30T08:56:22.693Z,99434.27
2023-06-30T08:58:50.231Z,99424.05
2023-06-30T09:01:18.397Z,99421.76
2023-06-30T09:03:46.931Z,99417.89
2023-06-30T09:06:15.352Z,99408.61
2023-06-30T09:08:51.997Z,99399.38
2023-06-30T09:11:23.527Z,99397.70
2023-06-30T09:13:54.641Z,99403.16
2023-06-30T09:16:22.413Z,99397.83
2023-06-30T09:18:50.429Z,99395.88
2023-06-30T09:21:18.042Z,99394.90
2023-06-30T09:23:45.543Z,99395.68
2023-06-30T09:26:17.294Z,99392.52
2023-06-30T09:28:46.345Z,99381.52
2023-06-30T09:31:15.491Z,99381.66
2023-06-30T09:33:44.440Z,99385.29
2023-06-30T09:36:17.556Z,99387.19
2023-06-30T09:38:45.243Z,99370.68
2023-06-30T09:41:21.029Z,99370.11
2023-06-30T09:43:57.334Z,99364.79
2023-06-30T09:46:25.117Z,99363.21
2023-06-30T09:48:56.619Z,99360.91
2023-06-30T09:51:24.233Z,99358.25
2023-06-30T09:53:55.413Z,99361.67
2023-06-30T09:56:23.908Z,99359.88
2023-06-30T09:58:57.902Z,99357.65
2023-06-30T10:01:25.936Z,99353.91
2023-06-30T10:03:55.685Z,99358.25
2023-06-30T10:06:24.482Z,99348.59
2023-06-30T10:08:52.558Z,99346.65
2023-06-30T10:11:23.376Z,99345.48
2023-06-30T10:13:55.608Z,99344.27
2023-06-30T10:16:23.794Z,99343.17
2023-06-30T10:18:52.664Z,99342.92
2023-06-30T10:21:20.363Z,99337.52
2023-06-30T10:23:49.156Z,99342.06
2023-06-30T10:26:20.445Z,99335.37
2023-06-30T10:28:48.831Z,99333.52
2023-06-30T10:31:17.091Z,99326.52
2023-06-30T10:33:44.820Z,99326.44
2023-06-30T10:36:14.570Z,99325.54
2023-06-30T10:38:44.363Z,99322.24
2023-06-30T10:41:18.378Z,99313.33
2023-06-30T10:44:04.662Z,99311.11
2023-06-30T10:46:48.774Z,99310.64
2023-06-30T10:49:36.161Z,99300.80
2023-06-30T10:52:08.582Z,99302.77
2023-06-30T10:54:46.948Z,99298.03
2023-06-30T10:57:21.695Z,99297.92
2023-06-30T11:00:17.194Z,99295.41
2023-06-30T11:02:57.078Z,99294.34
2023-06-30T11:05:32.434Z,99293.98
2023-06-30T11:08:02.867Z,99291.21
2023-06-30T11:10:47.782Z,99290.10
2023-06-30T11:13:15.598Z,99285.15
2023-06-30T11:15:43.221Z,99274.36
2023-06-30T11:18:13.241Z,99264.77
2023-06-30T11:20:57.879Z,99258.61
2023-06-30T11:23:47.008Z,99253.26
2023-06-30T11:26:19.811Z,99246.59
2023-06-30T11:28:49.612Z,99246.31
2023-06-30T11:31:18.180Z,99243.91
2023-06-30T11:33:47.038Z,99241.14
2023-06-30T11:36:16.229Z,99236.55
2023-06-30T11:38:48.080Z,99228.32
2023-06-30T11:41:20.321Z,99226.91
2023-06-30T11:43:52.052Z,99220.70
2023-06-30T11:46:20.355Z,99218.35
2023-06-30T11:48:50.735Z,99215.85
2023-06-30T11:51:18.952Z,99211.56
2023-06-30T11:53:50.222Z,99204.35
2023-06-30T11:56:22.016Z,99203.80
2023-06-30T11:58:50.622Z,99202.00
2023-06-30T12:01:18.215Z,99198.40
2023-06-30T12:03:45.745Z,99191.33
2023-06-30T12:06:19.545Z,99188.52
2023-06-30T12:08:47.157Z,99187.20
2023-06-30T12:11:16.963Z,99182.08
2023-06-30T12:13:45.286Z,99183.29
2023-06-30T12:16:13.677Z,99181.65
2023-06-30T12:18:45.700Z,99179.11
2023-06-30T12:21:14.447Z,99172.55
2023-06-30T12:23:46.381Z,99164.15
2023-06-30T12:26:14.722Z,99162.73
2023-06-30T12:28:43.158Z,99161.79
2023-06-30T12:31:11.208Z,99158.94
2023-06-30T12:33:38.727Z,99156.25
2023-06-30T12:36:09.628Z,99161.86
2023-06-30T12:38:37.166Z,99168.66
2023-06-30T12:41:04.823Z,99167.39
2023-06-30T12:43:34.400Z,99159.25
2023-06-30T12:46:02.692Z,99156.09
2023-06-30T12:48:30.461Z,99154.81
2023-06-30T12:50:59.012Z,99147.73
2023-06-30T12:53:26.688Z,99137.99
2023-06-30T12:55:54.464Z,99127.35
2023-06-30T12:58:22.379Z,99124.02
2023-06-30T13:00:54.423Z,99117.31
2023-06-30T13:03:22.070Z,99114.44
2023-06-30T13:05:52.019Z,99106.95
2023-06-30T13:08:19.526Z,99101.66
2023-06-30T13:10:47.184Z,99096.13
2023-06-30T13:13:14.926Z,99093.13
2023-06-30T13:15:42.804Z,99090.81
2023-06-30T13:18:10.724Z,99089.13
2023-06-30T13:20:38.550Z,99089.18
2023-06-30T13:23:12.615Z,99087.66
2023-06-30T13:25:48.332Z,99078.98
2023-06-30T13:28:16.232Z,99079.13
2023-06-30T13:30:44.345Z,99072.44
2023-06-30T13:33:12.739Z,99062.01
2023-06-30T13:35:40.256Z,99056.27
2023-06-30T13:38:07.836Z,99058.88
2023-06-30T13:40:35.352Z,99056.38
2023-06-30T13:43:04.458Z,99055.02
2023-06-30T13:45:32.799Z,99059.63
2023-06-30T13:48:00.458Z,99059.07
2023-06-30T13:50:29.016Z,99055.59
2023-06-30T13:52:56.729Z,99060.48
2023-06-30T13:55:25.556Z,99054.58
2023-06-30T13:57:53.149Z,99050.80
2023-06-30T14:00:21.790Z,99047.35
2023-06-30T14:02:49.426Z,99037.15
2023-06-30T14:05:17.307Z,99037.58
2023-06-30T14:07:45.006Z,99039.01
2023-06-30T14:10:12.613Z,99036.68
2023-06-30T14:12:41.324Z,99039.13
2023-06-30T14:15:09.767Z,99042.50
2023-06-30T14:17:37.407Z,99039.94
2023-06-30T14:20:06.609Z,99043.47
2023-06-30T14:22:34.178Z,99041.08
2023-06-30T14:25:01.708Z,99041.13
2023-06-30T14:27:29.284Z,99043.19
2023-06-30T14:29:56.830Z,99042.67
2023-06-30T14:32:26.676Z,99046.98
2023-06-30T14:34:54.389Z,99049.95
2023-06-30T14:37:22.260Z,99052.13
2023-06-30T14:39:49.770Z,99045.35
2023-06-30T14:42:30.919Z,99044.58
2023-06-30T14:45:00.351Z,99045.56
2023-06-30T14:47:28.398Z,99050.02
2023-06-30T14:49:58.124Z,99056.23
2023-06-30T14:52:26.314Z,99057.55
2023-06-30T14:54:53.908Z,99063.20
2023-06-30T14:57:21.434Z,99066.23
2023-06-30T14:59:49.059Z,99068.58
2023-06-30T15:02:18.598Z,99066.84
2023-06-30T15:04:46.546Z,99064.58
2023-06-30T15:07:14.202Z,99069.36
2023-06-30T15:09:42.676Z,99069.57
2023-06-30T15:12:10.650Z,99072.33
2023-06-30T15:14:38.212Z,99081.35
2023-06-30T15:17:05.835Z,99082.54
2023-06-30T15:19:34.214Z,99083.96
2023-06-30T15:22:01.832Z,99090.89
2023-06-30T15:24:29.426Z,99096.09
2023-06-30T15:26:57.145Z,99101.10
2023-06-30T15:29:24.674Z,99108.18
2023-06-30T15:31:54.934Z,99113.52
2023-06-30T15:34:23.105Z,99115.52
2023-06-30T15:36:50.602Z,99122.51
2023-06-30T15:39:18.136Z,99131.19
2023-06-30T15:41:45.670Z,99131.15
2023-06-30T15:44:13.198Z,99135.91
2023-06-30T15:46:40.897Z,99135.55
2023-06-30T15:49:08.594Z,99134.48
2023-06-30T15:51:36.148Z,99141.55
2023-06-30T15:54:03.657Z,99141.89
2023-06-30T15:56:31.256Z,99149.03
2023-06-30T15:58:59.223Z,99151.98
2023-06-30T16:01:26.730Z,99151.40
2023-06-30T16:03:54.275Z,99152.23
2023-06-30T16:06:21.900Z,99154.84
2023-06-30T16:08:49.396Z,99163.48
2023-06-30T16:11:16.932Z,99167.27
2023-06-30T16:13:44.565Z,99166.04
2023-06-30T16:16:12.073Z,99177.58
2023-06-30T16:18:39.676Z,99176.59
2023-06-30T16:21:07.202Z,99181.02
2023-06-30T16:23:34.925Z,99181.48
2023-06-30T16:26:02.422Z,99176.48
2023-06-30T16:28:29.974Z,99173.21
2023-06-30T16:30:57.495Z,99176.73
2023-06-30T16:33:25.154Z,99174.78
2023-06-30T16:35:52.965Z,99175.81
2023-06-30T16:38:20.506Z,99178.20
2023-06-30T16:40:48.043Z,99177.20
2023-06-30T16:43:15.554Z,99175.17
2023-06-30T16:45:43.202Z,99179.16
2023-06-30T16:48:10.977Z,99185.04
2023-06-30T16:50:38.617Z,99193.39
2023-06-30T16:53:06.218Z,99198.00
2023-06-30T16:55:33.774Z,99199.85
2023-06-30T16:58:02.188Z,99202.66
2023-06-30T17:00:29.746Z,99208.18
2023-06-30T17:02:57.341Z,99216.17
2023-06-30T17:05:25.574Z,99221.31
2023-06-30T17:07:53.289Z,99231.25
2023-06-30T17:10:20.825Z,99242.20
2023-06-30T17:12:48.375Z,99243.18
2023-06-30T17:15:15.902Z,99244.95
2023-06-30T17:17:43.411Z,99246.95
2023-06-30T17:20:11.572Z,99247.46
2023-06-30T17:22:39.062Z,99249.02
2023-06-30T17:25:07.560Z,99249.88
2023-06-30T17:27:35.250Z,99252.50
2023-06-30T17:30:03.975Z,99259.94
2023-06-30T17:32:31.539Z,99261.27
2023-06-30T17:34:59.194Z,99271.57
2023-06-30T17:37:26.982Z,99287.73
2023-06-30T17:39:54.621Z,99311.34
2023-06-30T17:42:22.294Z,99316.89
2023-06-30T17:44:49.800Z,99307.20
2023-06-30T17:47:17.282Z,99312.27
2023-06-30T17:49:46.531Z,99314.25
2023-06-30T17:52:15.793Z,99315.34
2023-06-30T17:54:43.545Z,99322.61
2023-06-30T17:57:11.131Z,99327.43
2023-06-30T17:59:38.640Z,99320.05
2023-06-30T18:02:07.002Z,99321.90
2023-06-30T18:04:35.060Z,99318.89
2023-06-30T18:07:09.331Z,99318.34
2023-06-30T18:09:41.983Z,99315.74
2023-06-30T18:12:11.107Z,99323.35
2023-06-30T18:14:41.795Z,99333.44
2023-06-30T18:17:09.635Z,99343.65
2023-06-30T18:19:41.176Z,99348.09
2023-06-30T18:22:08.948Z,99364.13
2023-06-30T18:24:36.536Z,99369.60
2023-06-30T18:27:04.526Z,99373.41
2023-06-30T18:29:32.508Z,99382.38
2023-06-30T18:32:01.065Z,99388.18
2023-06-30T18:34:29.239Z,99397.41
2023-06-30T18:36:56.897Z,99408.91
2023-06-30T18:39:24.440Z,99417.84
2023-06-30T18:41:51.921Z,99412.11
2023-06-30T18:44:19.462Z,99418.93
2023-06-30T18:46:48.154Z,99425.71
2023-06-30T18:49:15.676Z,99422.14
2023-06-30T18:51:43.919Z,99423.70
2023-06-30T18:54:11.678Z,99434.36
2023-06-30T18:56:39.245Z,99439.09
2023-06-30T18:59:06.899Z,99442.02
2023-06-30T19:01:35.074Z,99441.20
2023-06-30T19:04:03.296Z,99450.86
2023-06-30T19:06:31.166Z,99455.10
2023-06-30T19:08:58.668Z,99439.77
2023-06-30T19:11:26.213Z,99443.06
2023-06-30T19:13:53.709Z,99444.85
2023-06-30T19:16:21.518Z,99445.89
2023-06-30T19:18:49.098Z,99432.98
2023-06-30T19:21:17.501Z,99420.98
2023-06-30T19:23:45.173Z,99403.64
2023-06-30T19:26:13.263Z,99401.92
2023-06-30T19:28:41.684Z,99398.13
2023-06-30T19:31:09.506Z,99390.30
2023-06-30T19:33:37.838Z,99376.12
2023-06-30T19:36:06.708Z,99368.04
2023-06-30T19:38:34.536Z,99350.88
2023-06-30T19:41:02.096Z,99340.77
2023-06-30T19:43:29.708Z,99329.92
2023-06-30T19:45:57.490Z,99318.87
2023-06-30T19:48:25.048Z,99300.96
2023-06-30T19:50:52.726Z,99277.44
2023-06-30T19:53:20.640Z,99264.20
2023-06-30T19:55:49.201Z,99267.39
2023-06-30T19:58:16.954Z,99275.92
2023-06-30T20:00:44.494Z,99276.00
2023-06-30T20:03:12.096Z,99276.09
2023-06-30T20:05:39.796Z,99290.31
2023-06-30T20:08:07.473Z,99306.92
2023-06-30T20:10:34.981Z,99323.52
2023-06-30T20:13:02.755Z,99327.84
2023-06-30T20:15:31.944Z,99334.41
2023-06-30T20:17:59.630Z,99342.95
2023-06-30T20:20:27.442Z,99349.27
2023-06-30T20:22:55.185Z,99347.85
2023-06-30T20:25:24.297Z,99341.77
2023-06-30T20:27:51.911Z,99342.85
2023-06-30T20:30:19.635Z,99339.02
2023-06-30T20:32:47.328Z,99338.66
2023-06-30T20:35:18.108Z,99339.77
2023-06-30T20:37:46.836Z,99347.84
2023-06-30T20:40:14.372Z,99348.59
2023-06-30T20:42:41.958Z,99344.46
2023-06-30T20:45:10.383Z,99338.91
2023-06-30T20:47:38.443Z,99339.97
2023-06-30T20:50:08.932Z,99338.45
2023-06-30T20:52:37.199Z,99339.09
2023-06-30T20:55:05.217Z,99346.38
2023-06-30T20:57:33.535Z,99342.90
2023-06-30T21:00:01.066Z,99345.10
2023-06-30T21:02:29.196Z,99353.54
2023-06-30T21:04:58.863Z,99354.61
2023-06-30T21:07:26.950Z,99356.69
2023-06-30T21:09:54.462Z,99347.67
2023-06-30T21:12:22.013Z,99345.45
2023-06-30T21:14:49.572Z,99352.55
2023-06-30T21:17:17.145Z,99353.75
2023-06-30T21:19:44.632Z,99351.66
2023-06-30T21:22:12.133Z,99350.55
2023-06-30T21:24:39.631Z,99342.58
2023-06-30T21:27:07.247Z,99335.89
2023-06-30T21:29:34.750Z,99337.94
2023-06-30T21:32:02.489Z,99332.63
2023-06-30T21:34:30.179Z,99338.58
2023-06-30T21:36:57.726Z,99337.77
2023-06-30T21:39:25.458Z,99342.77
2023-06-30T21:41:52.999Z,99341.32
2023-06-30T21:44:20.553Z,99344.45
2023-06-30T21:46:48.074Z,99341.24
2023-06-30T21:49:15.611Z,99337.66
2023-06-30T21:51:43.245Z,99345.33
2023-06-30T21:54:10.859Z,99346.46
2023-06-30T21:56:38.366Z,99344.30
2023-06-30T21:59:06.030Z,99348.23
2023-06-30T22:01:41.225Z,99344.56
2023-06-30T22:04:10.158Z,99342.55
2023-06-30T22:06:38.040Z,99344.21
2023-06-30T22:09:15.477Z,99347.66
2023-06-30T22:11:45.295Z,99345.78
2023-06-30T22:14:13.319Z,99343.84
2023-06-30T22:16:41.208Z,99347.01
2023-06-30T22:19:08.811Z,99341.14
2023-06-30T22:21:36.529Z,99334.60
2023-06-30T22:24:04.438Z,99337.20
2023-06-30T22:26:31.973Z,99338.27
2023-06-30T22:28:59.741Z,99336.32
2023-06-30T22:31:27.505Z,99333.92
2023-06-30T22:33:55.288Z,99335.63
2023-06-30T22:36:23.093Z,99332.30
2023-06-30T22:38:51.069Z,99326.81
2023-06-30T22:41:18.707Z,99330.27
2023-06-30T22:43:46.308Z,99331.81
2023-06-30T22:46:13.831Z,99333.40
2023-06-30T22:48:41.480Z,99333.60
2023-06-30T22:51:09.076Z,99332.94
2023-06-30T22:53:36.639Z,99333.96
2023-06-30T22:56:07.283Z,99335.15
2023-06-30T22:58:34.891Z,99334.96
2023-06-30T23:01:02.497Z,99338.36
2023-06-30T23:03:30.150Z,99339.35
2023-06-30T23:05:57.802Z,99331.26
2023-06-30T23:08:25.335Z,99334.81
2023-06-30T23:10:53.968Z,99338.25
2023-06-30T23:13:21.500Z,99338.67
2023-06-30T23:15:49.027Z,99337.24
2023-06-30T23:18:20.343Z,99340.27
2023-06-30T23:20:48.485Z,99340.20
2023-06-30T23:23:16.278Z,99337.81
2023-06-30T23:25:43.928Z,99339.48
2023-06-30T23:28:11.481Z,99335.72
2023-06-30T23:30:40.549Z,99331.60
2023-06-30T23:33:08.225Z,99328.94
2023-06-30T23:35:35.904Z,99329.40
2023-06-30T23:38:03.568Z,99337.31
2023-06-30T23:40:31.060Z,99339.48
2023-06-30T23:42:59.523Z,99340.48
2023-06-30T23:45:27.076Z,99341.75
2023-06-30T23:47:56.033Z,99339.02
2023-06-30T23:50:24.181Z,99340.08
2023-06-30T23:52:51.742Z,99343.85
2023-06-30T23:55:19.281Z,99350.84
2023-06-30T23:57:46.869Z,99355.80
